Terminal Aerodrome Forecast
Issued by NWS

Current Version | Previous Version | Text Only | Print | Product List | Glossary Off
Versions: 1 2 3 4 5 6 7 8 9 10 11 12 13 14 15 16 17 18 19 20 21 22 23 24 25 26

000
FTUS41 KRLX 180200 AAA
TAFCKB
TAF AMD
KCKB 180216Z 1802/1824 VRB03KT P6SM SCT250
     FM180500 00000KT 4SM BR FEW001
     FM180700 00000KT 1/2SM FG VV001
     FM181200 00000KT 4SM BR SCT010
     FM181300 00000KT P6SM SKC=

USA.gov is the U.S. government's official web portal to all federal, state and local government web resources and services.